sensor_id;sensor_type;location;lat;lon;timestamp;P1;durP1;ratioP1;P2;durP2;ratioP2
56824;SDS011;42705;50.326;18.772;2023-05-07T00:03:39;22.90;;;14.00;;
56824;SDS011;42705;50.326;18.772;2023-05-07T00:09:01;18.20;;;12.20;;
56824;SDS011;42705;50.326;18.772;2023-05-07T00:14:23;20.10;;;13.20;;
56824;SDS011;42705;50.326;18.772;2023-05-07T00:19:45;17.20;;;11.30;;
56824;SDS011;42705;50.326;18.772;2023-05-07T00:25:08;21.10;;;11.30;;
56824;SDS011;42705;50.326;18.772;2023-05-07T00:30:31;17.70;;;10.70;;
56824;SDS011;42705;50.326;18.772;2023-05-07T00:35:56;18.00;;;11.00;;
56824;SDS011;42705;50.326;18.772;2023-05-07T00:41:17;14.70;;;9.30;;
56824;SDS011;42705;50.326;18.772;2023-05-07T00:46:39;13.40;;;8.10;;
56824;SDS011;42705;50.326;18.772;2023-05-07T00:52:01;9.90;;;7.40;;
56824;SDS011;42705;50.326;18.772;2023-05-07T00:57:24;13.20;;;8.00;;
56824;SDS011;42705;50.326;18.772;2023-05-07T01:02:46;12.60;;;8.10;;
56824;SDS011;42705;50.326;18.772;2023-05-07T01:08:08;11.00;;;7.90;;
56824;SDS011;42705;50.326;18.772;2023-05-07T01:13:32;10.50;;;7.10;;
56824;SDS011;42705;50.326;18.772;2023-05-07T01:18:55;16.90;;;8.30;;
56824;SDS011;42705;50.326;18.772;2023-05-07T01:24:17;10.90;;;8.90;;
56824;SDS011;42705;50.326;18.772;2023-05-07T01:29:40;14.30;;;10.30;;
56824;SDS011;42705;50.326;18.772;2023-05-07T01:35:02;14.40;;;8.70;;
56824;SDS011;42705;50.326;18.772;2023-05-07T01:40:27;12.60;;;7.10;;
56824;SDS011;42705;50.326;18.772;2023-05-07T01:45:49;9.10;;;5.30;;
56824;SDS011;42705;50.326;18.772;2023-05-07T01:51:11;11.00;;;7.10;;
56824;SDS011;42705;50.326;18.772;2023-05-07T01:56:34;7.50;;;6.00;;
56824;SDS011;42705;50.326;18.772;2023-05-07T02:01:56;7.40;;;5.60;;
56824;SDS011;42705;50.326;18.772;2023-05-07T02:07:18;8.10;;;6.30;;
56824;SDS011;42705;50.326;18.772;2023-05-07T02:12:40;9.50;;;6.30;;
56824;SDS011;42705;50.326;18.772;2023-05-07T02:18:06;8.70;;;5.40;;
56824;SDS011;42705;50.326;18.772;2023-05-07T02:23:30;10.50;;;6.80;;
56824;SDS011;42705;50.326;18.772;2023-05-07T02:28:52;12.00;;;7.40;;
56824;SDS011;42705;50.326;18.772;2023-05-07T02:34:19;12.20;;;6.40;;
56824;SDS011;42705;50.326;18.772;2023-05-07T02:39:41;11.20;;;6.40;;
56824;SDS011;42705;50.326;18.772;2023-05-07T02:45:03;11.30;;;5.60;;
56824;SDS011;42705;50.326;18.772;2023-05-07T02:50:26;7.60;;;4.50;;
56824;SDS011;42705;50.326;18.772;2023-05-07T02:55:48;11.90;;;5.80;;
56824;SDS011;42705;50.326;18.772;2023-05-07T03:01:10;7.30;;;5.50;;
56824;SDS011;42705;50.326;18.772;2023-05-07T03:06:56;4.60;;;3.10;;
56824;SDS011;42705;50.326;18.772;2023-05-07T03:12:18;3.80;;;3.20;;
56824;SDS011;42705;50.326;18.772;2023-05-07T03:17:40;10.40;;;5.70;;
56824;SDS011;42705;50.326;18.772;2023-05-07T03:23:02;8.00;;;5.40;;
56824;SDS011;42705;50.326;18.772;2023-05-07T03:28:24;5.80;;;3.60;;
56824;SDS011;42705;50.326;18.772;2023-05-07T03:33:54;8.80;;;4.40;;
56824;SDS011;42705;50.326;18.772;2023-05-07T03:39:18;14.70;;;7.90;;
56824;SDS011;42705;50.326;18.772;2023-05-07T03:44:40;9.00;;;5.80;;
56824;SDS011;42705;50.326;18.772;2023-05-07T03:50:02;6.10;;;3.70;;
56824;SDS011;42705;50.326;18.772;2023-05-07T03:55:25;3.50;;;2.70;;
56824;SDS011;42705;50.326;18.772;2023-05-07T04:00:51;7.30;;;4.80;;
56824;SDS011;42705;50.326;18.772;2023-05-07T04:06:19;8.10;;;5.60;;
56824;SDS011;42705;50.326;18.772;2023-05-07T04:11:43;4.10;;;2.40;;
56824;SDS011;42705;50.326;18.772;2023-05-07T04:17:05;2.70;;;1.80;;
56824;SDS011;42705;50.326;18.772;2023-05-07T04:27:50;5.70;;;1.90;;
56824;SDS011;42705;50.326;18.772;2023-05-07T04:33:13;2.30;;;2.00;;
56824;SDS011;42705;50.326;18.772;2023-05-07T04:38:38;2.60;;;1.70;;
56824;SDS011;42705;50.326;18.772;2023-05-07T04:44:01;5.00;;;2.40;;
56824;SDS011;42705;50.326;18.772;2023-05-07T04:49:27;3.00;;;2.20;;
56824;SDS011;42705;50.326;18.772;2023-05-07T04:54:49;2.50;;;1.90;;
56824;SDS011;42705;50.326;18.772;2023-05-07T05:00:11;4.30;;;2.40;;
56824;SDS011;42705;50.326;18.772;2023-05-07T05:05:37;4.50;;;2.70;;
56824;SDS011;42705;50.326;18.772;2023-05-07T05:11:00;3.00;;;2.60;;
56824;SDS011;42705;50.326;18.772;2023-05-07T05:16:24;6.10;;;2.80;;
56824;SDS011;42705;50.326;18.772;2023-05-07T05:21:46;3.50;;;2.60;;
56824;SDS011;42705;50.326;18.772;2023-05-07T05:27:08;9.60;;;4.60;;
56824;SDS011;42705;50.326;18.772;2023-05-07T05:32:30;14.10;;;6.00;;
56824;SDS011;42705;50.326;18.772;2023-05-07T05:37:52;6.20;;;3.70;;
56824;SDS011;42705;50.326;18.772;2023-05-07T05:43:14;6.30;;;3.30;;
56824;SDS011;42705;50.326;18.772;2023-05-07T05:48:37;6.30;;;4.20;;
56824;SDS011;42705;50.326;18.772;2023-05-07T05:53:59;8.80;;;5.70;;
56824;SDS011;42705;50.326;18.772;2023-05-07T05:59:22;6.50;;;4.60;;
56824;SDS011;42705;50.326;18.772;2023-05-07T06:04:44;6.20;;;5.50;;
56824;SDS011;42705;50.326;18.772;2023-05-07T06:10:08;8.90;;;6.00;;
56824;SDS011;42705;50.326;18.772;2023-05-07T06:15:31;9.40;;;6.20;;
56824;SDS011;42705;50.326;18.772;2023-05-07T06:20:57;7.10;;;5.70;;
56824;SDS011;42705;50.326;18.772;2023-05-07T06:26:21;9.90;;;6.00;;
56824;SDS011;42705;50.326;18.772;2023-05-07T06:31:43;9.60;;;6.70;;
56824;SDS011;42705;50.326;18.772;2023-05-07T06:37:06;14.20;;;8.00;;
56824;SDS011;42705;50.326;18.772;2023-05-07T06:42:48;14.10;;;5.20;;
56824;SDS011;42705;50.326;18.772;2023-05-07T06:48:33;7.80;;;4.90;;
56824;SDS011;42705;50.326;18.772;2023-05-07T06:53:57;10.80;;;6.30;;
56824;SDS011;42705;50.326;18.772;2023-05-07T06:59:19;4.60;;;3.10;;
56824;SDS011;42705;50.326;18.772;2023-05-07T07:04:41;2.60;;;2.00;;
56824;SDS011;42705;50.326;18.772;2023-05-07T07:10:05;4.80;;;2.40;;
56824;SDS011;42705;50.326;18.772;2023-05-07T07:15:28;3.10;;;2.20;;
56824;SDS011;42705;50.326;18.772;2023-05-07T07:20:50;3.50;;;2.70;;
56824;SDS011;42705;50.326;18.772;2023-05-07T07:26:12;6.50;;;4.00;;
56824;SDS011;42705;50.326;18.772;2023-05-07T07:31:34;4.80;;;2.70;;
56824;SDS011;42705;50.326;18.772;2023-05-07T07:36:56;4.90;;;3.30;;
56824;SDS011;42705;50.326;18.772;2023-05-07T07:42:19;7.00;;;4.50;;
56824;SDS011;42705;50.326;18.772;2023-05-07T07:47:41;3.70;;;2.70;;
56824;SDS011;42705;50.326;18.772;2023-05-07T07:53:03;3.50;;;2.30;;
56824;SDS011;42705;50.326;18.772;2023-05-07T07:58:25;4.30;;;2.50;;
56824;SDS011;42705;50.326;18.772;2023-05-07T08:03:48;2.50;;;1.90;;
56824;SDS011;42705;50.326;18.772;2023-05-07T08:09:11;3.00;;;2.50;;
56824;SDS011;42705;50.326;18.772;2023-05-07T08:14:34;3.30;;;2.50;;
56824;SDS011;42705;50.326;18.772;2023-05-07T08:19:59;5.50;;;3.50;;
56824;SDS011;42705;50.326;18.772;2023-05-07T08:25:21;5.40;;;4.80;;
56824;SDS011;42705;50.326;18.772;2023-05-07T08:30:44;5.50;;;3.40;;
56824;SDS011;42705;50.326;18.772;2023-05-07T08:36:06;4.40;;;3.90;;
56824;SDS011;42705;50.326;18.772;2023-05-07T08:41:29;4.90;;;3.50;;
56824;SDS011;42705;50.326;18.772;2023-05-07T08:46:51;4.00;;;2.40;;
56824;SDS011;42705;50.326;18.772;2023-05-07T08:52:16;5.20;;;3.10;;
56824;SDS011;42705;50.326;18.772;2023-05-07T08:57:38;4.70;;;3.60;;
56824;SDS011;42705;50.326;18.772;2023-05-07T09:03:01;3.20;;;2.80;;
56824;SDS011;42705;50.326;18.772;2023-05-07T09:08:26;5.50;;;3.50;;
56824;SDS011;42705;50.326;18.772;2023-05-07T09:13:54;5.40;;;3.30;;
56824;SDS011;42705;50.326;18.772;2023-05-07T09:19:21;3.30;;;2.80;;
56824;SDS011;42705;50.326;18.772;2023-05-07T09:24:49;4.10;;;2.90;;
56824;SDS011;42705;50.326;18.772;2023-05-07T09:30:13;4.70;;;2.90;;
56824;SDS011;42705;50.326;18.772;2023-05-07T09:35:35;4.20;;;2.40;;
56824;SDS011;42705;50.326;18.772;2023-05-07T09:46:29;6.00;;;4.20;;
56824;SDS011;42705;50.326;18.772;2023-05-07T09:51:58;6.50;;;3.70;;
56824;SDS011;42705;50.326;18.772;2023-05-07T09:57:23;3.90;;;2.60;;
56824;SDS011;42705;50.326;18.772;2023-05-07T10:02:50;4.90;;;2.90;;
56824;SDS011;42705;50.326;18.772;2023-05-07T10:08:16;6.50;;;3.50;;
56824;SDS011;42705;50.326;18.772;2023-05-07T10:13:42;6.60;;;3.70;;
56824;SDS011;42705;50.326;18.772;2023-05-07T10:19:07;4.90;;;2.70;;
56824;SDS011;42705;50.326;18.772;2023-05-07T10:24:35;5.30;;;2.90;;
56824;SDS011;42705;50.326;18.772;2023-05-07T10:35:59;6.00;;;2.80;;
56824;SDS011;42705;50.326;18.772;2023-05-07T10:41:25;5.50;;;3.10;;
56824;SDS011;42705;50.326;18.772;2023-05-07T10:47:02;4.30;;;3.00;;
56824;SDS011;42705;50.326;18.772;2023-05-07T10:52:33;5.40;;;3.30;;
56824;SDS011;42705;50.326;18.772;2023-05-07T11:21:06;7.60;;;4.60;;
56824;SDS011;42705;50.326;18.772;2023-05-07T11:26:43;13.10;;;6.10;;
56824;SDS011;42705;50.326;18.772;2023-05-07T11:32:06;9.50;;;3.80;;
56824;SDS011;42705;50.326;18.772;2023-05-07T11:37:33;5.30;;;4.10;;
56824;SDS011;42705;50.326;18.772;2023-05-07T11:42:58;5.10;;;3.60;;
56824;SDS011;42705;50.326;18.772;2023-05-07T11:48:21;4.80;;;3.70;;
56824;SDS011;42705;50.326;18.772;2023-05-07T11:53:44;5.90;;;3.90;;
56824;SDS011;42705;50.326;18.772;2023-05-07T11:59:07;7.00;;;4.30;;
56824;SDS011;42705;50.326;18.772;2023-05-07T12:04:29;3.40;;;2.90;;
56824;SDS011;42705;50.326;18.772;2023-05-07T12:09:52;5.50;;;4.00;;
56824;SDS011;42705;50.326;18.772;2023-05-07T12:15:15;4.50;;;3.10;;
56824;SDS011;42705;50.326;18.772;2023-05-07T12:20:38;4.00;;;3.40;;
56824;SDS011;42705;50.326;18.772;2023-05-07T12:26:00;6.10;;;3.50;;
56824;SDS011;42705;50.326;18.772;2023-05-07T12:31:27;4.50;;;3.10;;
56824;SDS011;42705;50.326;18.772;2023-05-07T12:36:49;5.80;;;3.40;;
56824;SDS011;42705;50.326;18.772;2023-05-07T12:42:19;3.30;;;3.00;;
56824;SDS011;42705;50.326;18.772;2023-05-07T12:47:47;3.50;;;3.10;;
56824;SDS011;42705;50.326;18.772;2023-05-07T12:53:09;4.90;;;3.70;;
56824;SDS011;42705;50.326;18.772;2023-05-07T12:58:34;4.30;;;3.50;;
56824;SDS011;42705;50.326;18.772;2023-05-07T13:04:00;4.30;;;3.30;;
56824;SDS011;42705;50.326;18.772;2023-05-07T13:09:24;5.50;;;3.00;;
56824;SDS011;42705;50.326;18.772;2023-05-07T13:27:39;6.40;;;3.90;;
56824;SDS011;42705;50.326;18.772;2023-05-07T13:33:01;9.90;;;4.80;;
56824;SDS011;42705;50.326;18.772;2023-05-07T13:38:23;6.00;;;4.40;;
56824;SDS011;42705;50.326;18.772;2023-05-07T13:43:47;5.20;;;3.50;;
56824;SDS011;42705;50.326;18.772;2023-05-07T13:49:10;4.70;;;3.30;;
56824;SDS011;42705;50.326;18.772;2023-05-07T13:54:34;4.60;;;2.90;;
56824;SDS011;42705;50.326;18.772;2023-05-07T13:59:56;6.60;;;3.10;;
56824;SDS011;42705;50.326;18.772;2023-05-07T14:05:19;11.60;;;4.20;;
56824;SDS011;42705;50.326;18.772;2023-05-07T14:10:42;7.00;;;3.80;;
56824;SDS011;42705;50.326;18.772;2023-05-07T14:16:04;9.20;;;5.00;;
56824;SDS011;42705;50.326;18.772;2023-05-07T14:21:28;8.90;;;5.20;;
56824;SDS011;42705;50.326;18.772;2023-05-07T14:26:52;7.00;;;4.50;;
56824;SDS011;42705;50.326;18.772;2023-05-07T14:32:14;8.90;;;5.40;;
56824;SDS011;42705;50.326;18.772;2023-05-07T14:37:36;9.80;;;6.30;;
56824;SDS011;42705;50.326;18.772;2023-05-07T14:42:58;9.70;;;5.50;;
56824;SDS011;42705;50.326;18.772;2023-05-07T14:48:20;10.50;;;4.80;;
56824;SDS011;42705;50.326;18.772;2023-05-07T14:53:42;7.80;;;4.60;;
56824;SDS011;42705;50.326;18.772;2023-05-07T14:59:03;7.70;;;3.60;;
56824;SDS011;42705;50.326;18.772;2023-05-07T15:04:26;6.30;;;4.30;;
56824;SDS011;42705;50.326;18.772;2023-05-07T15:09:48;6.30;;;4.00;;
56824;SDS011;42705;50.326;18.772;2023-05-07T15:15:10;8.70;;;4.60;;
56824;SDS011;42705;50.326;18.772;2023-05-07T15:20:32;7.80;;;5.30;;
56824;SDS011;42705;50.326;18.772;2023-05-07T15:25:54;11.40;;;6.20;;
56824;SDS011;42705;50.326;18.772;2023-05-07T15:31:16;14.50;;;8.30;;
56824;SDS011;42705;50.326;18.772;2023-05-07T15:36:39;13.50;;;7.10;;
56824;SDS011;42705;50.326;18.772;2023-05-07T15:42:03;10.20;;;6.60;;
56824;SDS011;42705;50.326;18.772;2023-05-07T15:47:25;13.10;;;8.10;;
56824;SDS011;42705;50.326;18.772;2023-05-07T15:52:49;14.50;;;8.50;;
56824;SDS011;42705;50.326;18.772;2023-05-07T15:58:11;11.00;;;7.00;;
56824;SDS011;42705;50.326;18.772;2023-05-07T16:03:35;10.70;;;5.60;;
56824;SDS011;42705;50.326;18.772;2023-05-07T16:08:57;8.00;;;5.80;;
56824;SDS011;42705;50.326;18.772;2023-05-07T16:14:19;11.50;;;6.70;;
56824;SDS011;42705;50.326;18.772;2023-05-07T16:19:42;9.10;;;6.20;;
56824;SDS011;42705;50.326;18.772;2023-05-07T16:25:04;8.80;;;6.40;;
56824;SDS011;42705;50.326;18.772;2023-05-07T16:30:27;8.40;;;6.10;;
56824;SDS011;42705;50.326;18.772;2023-05-07T16:35:52;8.50;;;5.40;;
56824;SDS011;42705;50.326;18.772;2023-05-07T16:41:14;11.70;;;6.70;;
56824;SDS011;42705;50.326;18.772;2023-05-07T16:46:36;13.00;;;6.90;;
56824;SDS011;42705;50.326;18.772;2023-05-07T16:51:58;9.00;;;6.60;;
56824;SDS011;42705;50.326;18.772;2023-05-07T16:57:20;13.50;;;7.80;;
56824;SDS011;42705;50.326;18.772;2023-05-07T17:02:43;14.10;;;6.90;;
56824;SDS011;42705;50.326;18.772;2023-05-07T17:08:07;11.10;;;6.10;;
56824;SDS011;42705;50.326;18.772;2023-05-07T17:13:30;9.90;;;6.10;;
56824;SDS011;42705;50.326;18.772;2023-05-07T17:18:53;6.90;;;5.60;;
56824;SDS011;42705;50.326;18.772;2023-05-07T17:24:16;10.80;;;7.30;;
56824;SDS011;42705;50.326;18.772;2023-05-07T17:29:39;9.40;;;6.50;;
56824;SDS011;42705;50.326;18.772;2023-05-07T17:35:01;10.80;;;6.00;;
56824;SDS011;42705;50.326;18.772;2023-05-07T17:40:25;11.60;;;6.60;;
56824;SDS011;42705;50.326;18.772;2023-05-07T17:45:48;8.40;;;5.40;;
56824;SDS011;42705;50.326;18.772;2023-05-07T17:51:11;6.40;;;4.30;;
56824;SDS011;42705;50.326;18.772;2023-05-07T17:56:33;9.80;;;5.00;;
56824;SDS011;42705;50.326;18.772;2023-05-07T18:01:56;8.80;;;5.30;;
56824;SDS011;42705;50.326;18.772;2023-05-07T18:07:19;9.60;;;5.70;;
56824;SDS011;42705;50.326;18.772;2023-05-07T18:12:42;8.30;;;5.80;;
56824;SDS011;42705;50.326;18.772;2023-05-07T18:18:04;11.90;;;6.60;;
56824;SDS011;42705;50.326;18.772;2023-05-07T18:23:29;9.70;;;5.90;;
56824;SDS011;42705;50.326;18.772;2023-05-07T18:28:54;9.20;;;5.80;;
56824;SDS011;42705;50.326;18.772;2023-05-07T18:34:16;7.90;;;5.00;;
56824;SDS011;42705;50.326;18.772;2023-05-07T18:39:39;8.40;;;5.40;;
56824;SDS011;42705;50.326;18.772;2023-05-07T18:45:01;10.50;;;5.70;;
56824;SDS011;42705;50.326;18.772;2023-05-07T18:50:25;7.10;;;4.70;;
56824;SDS011;42705;50.326;18.772;2023-05-07T18:55:52;9.00;;;5.20;;
56824;SDS011;42705;50.326;18.772;2023-05-07T19:01:37;8.70;;;5.40;;
56824;SDS011;42705;50.326;18.772;2023-05-07T19:07:00;7.80;;;4.90;;
56824;SDS011;42705;50.326;18.772;2023-05-07T19:12:24;7.10;;;4.60;;
56824;SDS011;42705;50.326;18.772;2023-05-07T19:17:48;8.90;;;4.80;;
56824;SDS011;42705;50.326;18.772;2023-05-07T19:23:14;7.60;;;4.90;;
56824;SDS011;42705;50.326;18.772;2023-05-07T19:34:05;9.00;;;4.70;;
56824;SDS011;42705;50.326;18.772;2023-05-07T19:39:28;9.00;;;5.20;;
56824;SDS011;42705;50.326;18.772;2023-05-07T19:44:53;8.20;;;5.00;;
56824;SDS011;42705;50.326;18.772;2023-05-07T19:50:16;7.90;;;4.70;;
56824;SDS011;42705;50.326;18.772;2023-05-07T19:55:38;8.90;;;5.00;;
56824;SDS011;42705;50.326;18.772;2023-05-07T20:01:02;9.40;;;5.00;;
56824;SDS011;42705;50.326;18.772;2023-05-07T20:06:25;8.20;;;4.70;;
56824;SDS011;42705;50.326;18.772;2023-05-07T20:11:47;10.30;;;5.10;;
56824;SDS011;42705;50.326;18.772;2023-05-07T20:17:13;5.90;;;3.60;;
56824;SDS011;42705;50.326;18.772;2023-05-07T20:22:35;6.50;;;4.40;;
56824;SDS011;42705;50.326;18.772;2023-05-07T20:27:58;16.70;;;6.40;;
56824;SDS011;42705;50.326;18.772;2023-05-07T20:33:20;8.90;;;5.70;;
56824;SDS011;42705;50.326;18.772;2023-05-07T20:38:44;10.70;;;6.80;;
56824;SDS011;42705;50.326;18.772;2023-05-07T20:44:09;16.20;;;7.10;;
56824;SDS011;42705;50.326;18.772;2023-05-07T20:49:34;9.90;;;5.70;;
56824;SDS011;42705;50.326;18.772;2023-05-07T20:54:56;6.80;;;4.90;;
56824;SDS011;42705;50.326;18.772;2023-05-07T21:00:20;7.90;;;5.10;;
56824;SDS011;42705;50.326;18.772;2023-05-07T21:05:42;12.70;;;6.60;;
56824;SDS011;42705;50.326;18.772;2023-05-07T21:11:16;12.00;;;5.20;;
56824;SDS011;42705;50.326;18.772;2023-05-07T21:16:39;9.60;;;4.80;;
56824;SDS011;42705;50.326;18.772;2023-05-07T21:22:03;10.00;;;5.70;;
56824;SDS011;42705;50.326;18.772;2023-05-07T21:27:26;11.00;;;6.80;;
56824;SDS011;42705;50.326;18.772;2023-05-07T21:32:49;11.40;;;7.10;;
56824;SDS011;42705;50.326;18.772;2023-05-07T21:38:11;16.70;;;8.10;;
56824;SDS011;42705;50.326;18.772;2023-05-07T21:43:34;9.60;;;5.90;;
56824;SDS011;42705;50.326;18.772;2023-05-07T21:48:56;9.50;;;6.70;;
56824;SDS011;42705;50.326;18.772;2023-05-07T21:54:17;10.80;;;6.70;;
56824;SDS011;42705;50.326;18.772;2023-05-07T21:59:39;21.60;;;9.70;;
56824;SDS011;42705;50.326;18.772;2023-05-07T22:05:01;13.90;;;6.90;;
56824;SDS011;42705;50.326;18.772;2023-05-07T22:10:23;10.20;;;5.90;;
56824;SDS011;42705;50.326;18.772;2023-05-07T22:15:45;16.40;;;7.00;;
56824;SDS011;42705;50.326;18.772;2023-05-07T22:21:07;11.80;;;7.70;;
56824;SDS011;42705;50.326;18.772;2023-05-07T22:26:29;14.40;;;9.80;;
56824;SDS011;42705;50.326;18.772;2023-05-07T22:31:51;15.40;;;10.60;;
56824;SDS011;42705;50.326;18.772;2023-05-07T22:37:13;17.40;;;10.40;;
56824;SDS011;42705;50.326;18.772;2023-05-07T22:42:34;14.20;;;9.10;;
56824;SDS011;42705;50.326;18.772;2023-05-07T22:47:56;13.00;;;7.90;;
56824;SDS011;42705;50.326;18.772;2023-05-07T22:53:18;11.30;;;7.60;;
56824;SDS011;42705;50.326;18.772;2023-05-07T22:58:41;13.80;;;8.30;;
56824;SDS011;42705;50.326;18.772;2023-05-07T23:04:02;10.60;;;7.30;;
56824;SDS011;42705;50.326;18.772;2023-05-07T23:09:24;10.50;;;6.90;;
56824;SDS011;42705;50.326;18.772;2023-05-07T23:14:46;9.30;;;5.60;;
56824;SDS011;42705;50.326;18.772;2023-05-07T23:20:08;13.30;;;7.80;;
56824;SDS011;42705;50.326;18.772;2023-05-07T23:25:31;18.30;;;10.60;;
56824;SDS011;42705;50.326;18.772;2023-05-07T23:30:53;18.90;;;10.70;;
56824;SDS011;42705;50.326;18.772;2023-05-07T23:36:15;18.50;;;10.90;;
56824;SDS011;42705;50.326;18.772;2023-05-07T23:41:37;20.50;;;10.50;;
56824;SDS011;42705;50.326;18.772;2023-05-07T23:46:59;19.90;;;11.20;;
56824;SDS011;42705;50.326;18.772;2023-05-07T23:52:21;25.10;;;11.60;;
56824;SDS011;42705;50.326;18.772;2023-05-07T23:57:42;19.10;;;11.10;;
